Airfield :
LOGIN :

Register | Disclaimer

   EN    FR    IT 

 










Legend :    VFR   Marginal VFR   IFR   Intensive IFR   Very Intensive IFR
Visi :
Ceiling :
>= 8 km
>= 3000ft
5 to 8 km
1000 to 3000 ft
1500m to 5 km
500 to 1000 ft
800 to 1500m
200 to 500 ft
< 800m
< 200 ft
Symbols :   Thunderstorms  Fog  Heavy snow  Heavy precipitations  Wind > 20 kt
SIGMETs :     Misc.  Thunderstorms  Icing  Turbulence  Mountain Waves  Volcanic Ashes







- Airport Elevation : 32 ft
- IATA code : NRK


ESSP - Norrköping

CURRENT METAR :
  • 220150Z AUTO 28017KT 9999 FEW013/// BKN031/// BKN041/// 10/09 Q0997

EXPIRED METARs :
  • 220120Z 28018KT 9999 -RA FEW014 SCT035 BKN049 10/08 Q0997
  • 220050Z 28018KT 9999 -DZ FEW014 SCT042 OVC062 10/09 Q0997
  • 220020Z 29014KT 9999 -RA FEW020 BKN035 09/08 Q0998
  • 212350Z 29011KT 9999 -RA FEW010 BKN025 09/08 Q0998 REDZ

Expired Forecast.
No reported NOTAMs for that airfield.



MET'MAP, your aeronautical weather chart ! - Copyright ORBIFLY December 2007 - Disclaimer

ORBIFLY MET'MAP TEAM :

Programming & Development : Alexandra Zaïnal
Concept & Development : Baudouin d'Aumeries
Co-Development & Prog : Marc-Olivier Méhu
Technical & hardware support : Manuel Goepfert

Contact : metmap@orbifly.com




SOURCES & CREDITS :

   NOAA